createdAt,value
2024-02-29T00:00:14.465Z,99.90
2024-02-29T00:01:17.460Z,99.90
2024-02-29T00:02:19.453Z,99.90
2024-02-29T00:03:22.529Z,99.90
2024-02-29T00:04:25.705Z,99.90
2024-02-29T00:05:28.684Z,99.90
2024-02-29T00:06:30.787Z,99.90
2024-02-29T00:07:33.863Z,99.90
2024-02-29T00:08:35.784Z,99.90
2024-02-29T00:09:37.815Z,99.90
2024-02-29T00:10:42.093Z,99.90
2024-02-29T00:11:44.158Z,99.90
2024-02-29T00:12:47.122Z,99.90
2024-02-29T00:13:49.102Z,99.90
2024-02-29T00:14:51.656Z,99.90
2024-02-29T00:15:55.460Z,99.90
2024-02-29T00:16:59.279Z,99.90
2024-02-29T00:18:03.286Z,99.90
2024-02-29T00:19:05.277Z,99.90
2024-02-29T00:20:10.441Z,99.90
2024-02-29T00:21:12.616Z,99.90
2024-02-29T00:22:15.630Z,99.90
2024-02-29T00:23:17.599Z,99.90
2024-02-29T00:24:20.464Z,99.90
2024-02-29T00:25:22.500Z,99.90
2024-02-29T00:26:27.473Z,99.90
2024-02-29T00:27:29.438Z,99.90
2024-02-29T00:28:32.704Z,99.90
2024-02-29T00:29:35.680Z,99.90
2024-02-29T00:30:37.738Z,99.90
2024-02-29T00:31:44.080Z,99.90
2024-02-29T00:32:46.018Z,99.90
2024-02-29T00:33:48.032Z,99.90
2024-02-29T00:34:51.210Z,99.90
2024-02-29T00:36:04.510Z,99.90
2024-02-29T00:37:11.948Z,99.90
2024-02-29T00:38:13.983Z,99.90
2024-02-29T00:39:15.945Z,99.90
2024-02-29T00:40:19.004Z,99.90
2024-02-29T00:41:21.060Z,99.90
2024-02-29T00:42:25.307Z,99.90
2024-02-29T00:43:27.340Z,99.90
2024-02-29T00:44:30.310Z,99.90
2024-02-29T00:45:32.239Z,99.90
2024-02-29T00:46:34.363Z,99.90
2024-02-29T00:47:37.319Z,99.90
2024-02-29T00:48:39.551Z,99.90
2024-02-29T00:49:42.557Z,99.90
2024-02-29T00:50:45.469Z,99.90
2024-02-29T00:51:47.482Z,99.90
2024-02-29T00:52:50.462Z,99.90
2024-02-29T00:53:52.540Z,99.90
2024-02-29T00:54:55.717Z,99.90
2024-02-29T00:55:57.762Z,99.90
2024-02-29T00:57:00.672Z,99.90
2024-02-29T00:58:04.062Z,99.90
2024-02-29T00:59:07.201Z,99.90
2024-02-29T01:00:12.789Z,99.90
2024-02-29T01:01:15.804Z,99.90
2024-02-29T01:02:17.909Z,99.90
2024-02-29T01:03:20.810Z,99.90
2024-02-29T01:04:22.767Z,99.90
2024-02-29T01:05:25.755Z,99.90
2024-02-29T01:06:27.675Z,99.90
2024-02-29T01:07:29.582Z,99.90
2024-02-29T01:08:32.625Z,99.90
2024-02-29T01:09:34.792Z,99.90
2024-02-29T01:10:37.824Z,99.90
2024-02-29T01:11:39.787Z,99.90
2024-02-29T01:12:43.818Z,99.90
2024-02-29T01:13:47.252Z,99.90
2024-02-29T01:14:50.141Z,99.90
2024-02-29T01:15:52.307Z,99.90
2024-02-29T01:16:57.358Z,99.90
2024-02-29T01:17:59.382Z,99.90
2024-02-29T01:19:02.856Z,99.90
2024-02-29T01:20:06.070Z,99.90
2024-02-29T01:21:09.069Z,99.90
2024-02-29T01:22:11.024Z,99.90
2024-02-29T01:23:13.979Z,99.90
2024-02-29T01:24:16.055Z,99.90
2024-02-29T01:25:19.104Z,99.90
2024-02-29T01:26:21.027Z,99.90
2024-02-29T01:27:22.931Z,99.90
2024-02-29T01:28:25.833Z,99.90
2024-02-29T01:29:29.236Z,99.90
2024-02-29T01:30:32.219Z,99.90
2024-02-29T01:31:34.168Z,99.90
2024-02-29T01:32:38.033Z,99.90
2024-02-29T01:33:40.235Z,99.90
2024-02-29T01:34:43.210Z,99.90
2024-02-29T01:35:45.303Z,99.90
2024-02-29T01:36:48.294Z,99.90
2024-02-29T01:37:50.554Z,99.90
2024-02-29T01:38:53.513Z,99.90
2024-02-29T01:39:55.523Z,99.90
2024-02-29T01:40:58.514Z,99.90
2024-02-29T01:42:00.489Z,99.90
2024-02-29T01:43:04.053Z,99.90
2024-02-29T01:44:06.063Z,99.90
2024-02-29T01:45:10.910Z,99.90
2024-02-29T01:46:13.565Z,99.90
2024-02-29T01:47:16.553Z,99.90
2024-02-29T01:48:18.706Z,99.90
2024-02-29T01:49:22.402Z,99.90
2024-02-29T01:50:25.146Z,99.90
2024-02-29T01:51:28.136Z,99.90
2024-02-29T01:52:33.070Z,99.90
2024-02-29T01:53:36.025Z,99.90
2024-02-29T01:54:38.370Z,99.90
2024-02-29T01:55:41.460Z,99.90
2024-02-29T01:56:43.463Z,99.90
2024-02-29T01:57:46.502Z,99.90
2024-02-29T01:58:48.996Z,99.90
2024-02-29T01:59:52.108Z,99.90
2024-02-29T02:00:55.464Z,99.90
2024-02-29T02:01:58.685Z,99.90
2024-02-29T02:03:00.770Z,99.90
2024-02-29T02:04:03.984Z,99.90
2024-02-29T02:05:06.236Z,99.90
2024-02-29T02:06:09.119Z,99.90
2024-02-29T02:07:11.167Z,99.90
2024-02-29T02:08:14.475Z,99.90
2024-02-29T02:09:16.623Z,99.90
2024-02-29T02:10:19.720Z,99.90
2024-02-29T02:11:21.801Z,99.90
2024-02-29T02:12:24.750Z,99.90
2024-02-29T02:13:26.783Z,99.90
2024-02-29T02:14:30.150Z,99.90
2024-02-29T02:15:32.095Z,99.90
2024-02-29T02:16:36.525Z,99.90
2024-02-29T02:17:38.459Z,99.90
2024-02-29T02:18:41.466Z,99.90
2024-02-29T02:19:43.597Z,99.90
2024-02-29T02:20:46.981Z,99.90
2024-02-29T02:21:50.004Z,99.90
2024-02-29T02:22:51.939Z,99.90
2024-02-29T02:23:54.842Z,99.90
2024-02-29T02:24:57.190Z,99.90
2024-02-29T02:26:01.788Z,99.90
2024-02-29T02:27:04.422Z,99.90
2024-02-29T02:28:07.582Z,99.90
2024-02-29T02:29:09.548Z,99.90
2024-02-29T02:30:12.312Z,99.90
2024-02-29T02:31:15.235Z,99.90
2024-02-29T02:32:17.235Z,99.90
2024-02-29T02:33:19.616Z,99.90
2024-02-29T02:34:22.549Z,99.90
2024-02-29T02:35:24.586Z,99.90
2024-02-29T02:36:28.823Z,99.90
2024-02-29T02:37:31.193Z,99.90
2024-02-29T02:38:34.082Z,99.90
2024-02-29T02:39:36.025Z,99.90
2024-02-29T02:40:38.172Z,99.90
2024-02-29T02:41:41.880Z,99.90
2024-02-29T02:42:43.803Z,99.90
2024-02-29T02:43:49.674Z,99.90
2024-02-29T02:44:54.432Z,99.90
2024-02-29T02:45:56.478Z,99.90
2024-02-29T02:46:59.486Z,99.90
2024-02-29T02:48:01.514Z,99.90
2024-02-29T02:49:05.302Z,99.90
2024-02-29T02:50:07.683Z,99.90
2024-02-29T02:51:10.881Z,99.90
2024-02-29T02:52:14.225Z,99.90
2024-02-29T02:53:17.276Z,99.90
2024-02-29T02:54:19.255Z,99.90
2024-02-29T02:55:22.254Z,99.90
2024-02-29T02:56:24.242Z,99.90
2024-02-29T02:57:27.185Z,99.90
2024-02-29T02:58:29.133Z,99.90
2024-02-29T02:59:31.037Z,99.90
2024-02-29T03:00:35.057Z,99.90
2024-02-29T03:01:37.772Z,99.90
2024-02-29T03:02:40.690Z,99.90
2024-02-29T03:03:43.649Z,99.90
2024-02-29T03:04:45.592Z,99.90
2024-02-29T03:05:48.487Z,99.90
2024-02-29T03:06:50.544Z,99.90
2024-02-29T03:07:54.840Z,99.90
2024-02-29T03:08:56.782Z,99.90
2024-02-29T03:09:59.808Z,99.90
2024-02-29T03:11:01.804Z,99.90
2024-02-29T03:12:05.128Z,99.90
2024-02-29T03:13:07.356Z,99.90
2024-02-29T03:14:10.335Z,99.90
2024-02-29T03:15:12.385Z,99.90
2024-02-29T03:16:20.997Z,99.90
2024-02-29T03:17:24.030Z,99.90
2024-02-29T03:18:25.996Z,99.90
2024-02-29T03:19:28.047Z,99.90
2024-02-29T03:20:30.988Z,99.90
2024-02-29T03:21:33.852Z,99.90
2024-02-29T03:22:36.767Z,99.90
2024-02-29T03:23:40.125Z,99.90
2024-02-29T03:24:44.486Z,99.90
2024-02-29T03:25:46.859Z,99.90
2024-02-29T03:26:49.871Z,99.90
2024-02-29T03:27:52.902Z,99.90
2024-02-29T03:28:55.859Z,99.90
2024-02-29T03:30:00.259Z,99.90
2024-02-29T03:31:03.751Z,99.90
2024-02-29T03:32:05.962Z,99.90
2024-02-29T03:33:09.112Z,99.90
2024-02-29T03:34:11.168Z,99.90
2024-02-29T03:35:15.347Z,99.90
2024-02-29T03:36:17.489Z,99.90
2024-02-29T03:37:20.520Z,99.90
2024-02-29T03:38:22.553Z,99.90
2024-02-29T03:39:26.761Z,99.90
2024-02-29T03:40:29.268Z,99.90
2024-02-29T03:41:32.254Z,99.90
2024-02-29T03:42:34.285Z,99.90
2024-02-29T03:43:37.209Z,99.90
2024-02-29T03:44:42.474Z,99.90
2024-02-29T03:45:45.657Z,99.90
2024-02-29T03:46:47.565Z,99.90
2024-02-29T03:47:50.672Z,99.90
2024-02-29T03:48:52.611Z,99.90
2024-02-29T03:49:55.640Z,99.90
2024-02-29T03:50:57.631Z,99.90
2024-02-29T03:52:00.686Z,99.90
2024-02-29T03:53:02.626Z,99.90
2024-02-29T03:54:05.551Z,99.90
2024-02-29T03:55:09.407Z,99.90
2024-02-29T03:56:12.348Z,99.90
2024-02-29T03:57:14.413Z,99.90
2024-02-29T03:58:17.774Z,99.90
2024-02-29T03:59:19.790Z,99.90
2024-02-29T04:00:22.795Z,99.90
2024-02-29T04:01:24.994Z,99.90
2024-02-29T04:02:26.945Z,99.90
2024-02-29T04:03:29.966Z,99.90
2024-02-29T04:04:31.997Z,99.90
2024-02-29T04:05:34.967Z,99.90
2024-02-29T04:06:36.994Z,99.90
2024-02-29T04:07:41.690Z,99.90
2024-02-29T04:08:43.650Z,99.90
2024-02-29T04:09:46.698Z,99.90
2024-02-29T04:10:51.499Z,99.90
2024-02-29T04:11:54.580Z,99.90
2024-02-29T04:12:56.597Z,99.90
2024-02-29T04:13:59.481Z,99.90
2024-02-29T04:15:02.713Z,99.90
2024-02-29T04:16:06.061Z,99.90
2024-02-29T04:17:08.053Z,99.90
2024-02-29T04:18:10.997Z,99.90
2024-02-29T04:19:13.033Z,99.90
2024-02-29T04:20:15.968Z,99.90
2024-02-29T04:21:17.886Z,99.90
2024-02-29T04:22:19.903Z,99.90
2024-02-29T04:23:23.058Z,99.90
2024-02-29T04:24:25.147Z,99.90
2024-02-29T04:25:28.135Z,99.90
2024-02-29T04:26:31.506Z,99.90
2024-02-29T04:27:34.574Z,99.90
2024-02-29T04:28:36.628Z,99.90
2024-02-29T04:29:38.599Z,99.90
2024-02-29T04:30:41.517Z,99.90
2024-02-29T04:31:46.625Z,99.90
2024-02-29T04:32:49.527Z,99.90
2024-02-29T04:33:52.287Z,99.90
2024-02-29T04:34:55.761Z,99.90
2024-02-29T04:35:57.759Z,99.90
2024-02-29T04:37:00.694Z,99.90
2024-02-29T04:38:02.652Z,99.90
2024-02-29T04:39:05.661Z,99.90
2024-02-29T04:40:11.227Z,99.90
2024-02-29T04:41:14.800Z,99.90
2024-02-29T04:42:18.075Z,99.90
2024-02-29T04:43:21.220Z,99.90
2024-02-29T04:44:23.334Z,99.90
2024-02-29T04:45:25.695Z,99.90
2024-02-29T04:46:28.662Z,99.90
2024-02-29T04:47:30.609Z,99.90
2024-02-29T04:48:32.583Z,99.90
2024-02-29T04:49:35.716Z,99.90
2024-02-29T04:50:38.683Z,99.90
2024-02-29T04:51:41.596Z,99.90
2024-02-29T04:52:43.534Z,99.90
2024-02-29T04:53:46.533Z,99.90
2024-02-29T04:54:48.579Z,99.90
2024-02-29T04:55:51.506Z,99.90
2024-02-29T04:56:53.421Z,99.90
2024-02-29T04:57:57.659Z,99.90
2024-02-29T04:58:59.637Z,99.90
2024-02-29T05:00:02.809Z,99.90
2024-02-29T05:01:05.281Z,99.90
2024-02-29T05:02:10.899Z,99.90
2024-02-29T05:03:13.040Z,99.90
2024-02-29T05:04:16.197Z,99.90
2024-02-29T05:05:18.246Z,99.90
2024-02-29T05:06:21.268Z,99.90
2024-02-29T05:07:23.392Z,99.90
2024-02-29T05:08:26.421Z,99.90
2024-02-29T05:09:28.401Z,99.90
2024-02-29T05:10:31.299Z,99.90
2024-02-29T05:11:34.565Z,99.90
2024-02-29T05:12:38.603Z,99.90
2024-02-29T05:13:41.873Z,99.90
2024-02-29T05:14:44.760Z,99.90
2024-02-29T05:15:46.680Z,99.90
2024-02-29T05:16:49.602Z,99.90
2024-02-29T05:17:51.584Z,99.90
2024-02-29T05:18:54.634Z,99.90
2024-02-29T05:19:57.327Z,99.90
2024-02-29T05:21:00.228Z,99.90
2024-02-29T05:22:03.395Z,99.90
2024-02-29T05:23:06.981Z,99.90
2024-02-29T05:24:09.055Z,99.90
2024-02-29T05:25:12.036Z,99.90
2024-02-29T05:26:14.251Z,99.90
2024-02-29T05:27:17.381Z,99.90
2024-02-29T05:28:19.529Z,99.90
2024-02-29T05:29:23.797Z,99.90
2024-02-29T05:30:26.627Z,99.90
2024-02-29T05:31:29.725Z,99.90
2024-02-29T05:32:31.718Z,99.90
2024-02-29T05:33:34.910Z,99.90
2024-02-29T05:34:36.878Z,99.90
2024-02-29T05:35:39.859Z,99.90
2024-02-29T05:36:41.779Z,99.90
2024-02-29T05:37:45.432Z,99.90
2024-02-29T05:38:51.294Z,99.90
2024-02-29T05:39:54.496Z,99.90
2024-02-29T05:40:58.894Z,99.90
2024-02-29T05:42:01.877Z,99.90
2024-02-29T05:43:05.017Z,99.90
2024-02-29T05:44:09.695Z,99.90
2024-02-29T05:45:13.732Z,99.90
2024-02-29T05:46:16.753Z,99.90
2024-02-29T05:47:18.858Z,99.90
2024-02-29T05:48:20.768Z,99.90
2024-02-29T05:49:23.736Z,99.90
2024-02-29T05:50:25.770Z,99.90
2024-02-29T05:51:28.861Z,99.90
2024-02-29T05:52:30.749Z,99.90
2024-02-29T05:53:33.678Z,99.90
2024-02-29T05:54:35.676Z,99.90
2024-02-29T05:55:38.675Z,99.90
2024-02-29T05:56:40.635Z,99.90
2024-02-29T05:57:43.575Z,99.90
2024-02-29T05:58:45.666Z,99.90
2024-02-29T05:59:48.596Z,99.90
2024-02-29T06:00:52.091Z,99.90
2024-02-29T06:01:55.321Z,99.90
2024-02-29T06:02:58.105Z,99.90
2024-02-29T06:04:01.197Z,99.90
2024-02-29T06:05:03.516Z,99.90
2024-02-29T06:06:06.649Z,99.90
2024-02-29T06:07:08.796Z,99.90
2024-02-29T06:08:14.472Z,99.90
2024-02-29T06:09:17.372Z,99.90
2024-02-29T06:10:20.947Z,99.90
2024-02-29T06:11:22.960Z,99.90
2024-02-29T06:12:26.002Z,99.90
2024-02-29T06:13:29.831Z,99.90
2024-02-29T06:14:32.736Z,99.90
2024-02-29T06:15:34.969Z,99.90
2024-02-29T06:16:38.355Z,99.90
2024-02-29T06:17:41.345Z,99.90
2024-02-29T06:18:46.682Z,99.90
2024-02-29T06:19:50.171Z,99.90
2024-02-29T06:20:52.113Z,99.90
2024-02-29T06:21:55.029Z,99.90
2024-02-29T06:22:57.719Z,99.90
2024-02-29T06:24:01.023Z,99.90
2024-02-29T06:25:04.874Z,99.90
2024-02-29T06:26:07.811Z,99.90
2024-02-29T06:27:09.742Z,99.90
2024-02-29T06:28:12.748Z,99.90
2024-02-29T06:29:14.756Z,99.90
2024-02-29T06:30:17.969Z,99.90
2024-02-29T06:31:20.688Z,99.90
2024-02-29T06:32:24.944Z,99.90
2024-02-29T06:33:26.989Z,99.90
2024-02-29T06:34:28.981Z,99.90
2024-02-29T06:35:31.925Z,99.90
2024-02-29T06:36:34.663Z,99.90
2024-02-29T06:37:37.784Z,99.90
2024-02-29T06:38:39.704Z,99.90
2024-02-29T06:39:42.689Z,99.90
2024-02-29T06:40:44.771Z,99.90
2024-02-29T06:41:47.803Z,99.90
2024-02-29T06:42:49.956Z,99.90
2024-02-29T06:43:53.069Z,99.90
2024-02-29T06:44:55.003Z,99.90
2024-02-29T06:46:01.499Z,99.90
2024-02-29T06:47:03.652Z,99.90
2024-02-29T06:48:08.634Z,99.90
2024-02-29T06:49:10.635Z,99.90
2024-02-29T06:50:13.922Z,99.90
2024-02-29T06:51:16.782Z,99.90
2024-02-29T06:52:19.747Z,99.90
2024-02-29T06:53:21.674Z,99.90
2024-02-29T06:54:25.025Z,99.90
2024-02-29T06:55:27.227Z,99.90
2024-02-29T06:56:30.335Z,99.90
2024-02-29T06:57:32.280Z,99.90
2024-02-29T06:58:34.942Z,99.90
2024-02-29T06:59:37.893Z,99.90
2024-02-29T07:00:40.646Z,99.90
2024-02-29T07:01:43.664Z,99.90
2024-02-29T07:02:45.779Z,99.90
2024-02-29T07:03:50.313Z,99.90
2024-02-29T07:04:52.311Z,99.90
2024-02-29T07:05:56.176Z,99.90
2024-02-29T07:06:58.266Z,99.90
2024-02-29T07:08:02.419Z,99.90
2024-02-29T07:09:04.703Z,99.90
2024-02-29T07:10:08.896Z,99.90
2024-02-29T07:11:13.107Z,99.90
2024-02-29T07:12:16.396Z,99.90
2024-02-29T07:13:18.416Z,99.90
2024-02-29T07:14:21.427Z,99.90
2024-02-29T07:15:23.628Z,99.90
2024-02-29T07:16:27.337Z,99.90
2024-02-29T07:17:30.353Z,99.90
2024-02-29T07:18:32.410Z,99.90
2024-02-29T07:19:36.697Z,99.90
2024-02-29T07:20:38.680Z,99.90
2024-02-29T07:21:42.526Z,99.90
2024-02-29T07:22:47.041Z,99.90
2024-02-29T07:23:49.964Z,99.90
2024-02-29T07:24:51.934Z,99.90
2024-02-29T07:25:54.575Z,99.90
2024-02-29T07:26:57.748Z,99.90
2024-02-29T07:27:59.823Z,99.90
2024-02-29T07:29:02.750Z,99.90
2024-02-29T07:30:05.992Z,99.90
2024-02-29T07:31:09.117Z,99.90
2024-02-29T07:32:11.102Z,99.90
2024-02-29T07:33:14.057Z,99.90
2024-02-29T07:34:17.562Z,99.90
2024-02-29T07:35:21.859Z,99.90
2024-02-29T07:36:23.886Z,99.90
2024-02-29T07:37:26.929Z,99.90
2024-02-29T07:38:28.896Z,99.90
2024-02-29T07:39:31.849Z,99.90
2024-02-29T07:40:33.841Z,99.90
2024-02-29T07:41:36.902Z,99.90
2024-02-29T07:42:39.529Z,99.90
2024-02-29T07:43:42.543Z,99.90
2024-02-29T07:44:44.548Z,99.90
2024-02-29T07:45:47.434Z,99.90
2024-02-29T07:46:49.473Z,99.90
2024-02-29T07:47:52.428Z,99.90
2024-02-29T07:48:54.440Z,99.90
2024-02-29T07:49:57.381Z,99.90
2024-02-29T07:51:01.598Z,99.90
2024-02-29T07:52:05.659Z,99.90
2024-02-29T07:53:07.810Z,99.90
2024-02-29T07:54:11.181Z,99.90
2024-02-29T07:55:15.441Z,99.90
2024-02-29T07:56:19.136Z,99.90
2024-02-29T07:57:21.078Z,99.90
2024-02-29T07:58:24.084Z,99.90
2024-02-29T07:59:26.776Z,99.90
2024-02-29T08:00:29.814Z,99.90
2024-02-29T08:01:31.895Z,99.90
2024-02-29T08:02:34.814Z,99.90
2024-02-29T08:03:38.134Z,99.90
2024-02-29T08:04:41.270Z,99.90
2024-02-29T08:05:43.389Z,99.90
2024-02-29T08:06:47.672Z,99.90
2024-02-29T08:07:49.868Z,99.90
2024-02-29T08:08:52.814Z,99.90
2024-02-29T08:09:54.864Z,99.90
2024-02-29T08:10:57.798Z,99.90
2024-02-29T08:11:59.925Z,99.90
2024-02-29T08:13:03.475Z,99.90
2024-02-29T08:14:05.778Z,99.90
2024-02-29T08:15:09.250Z,99.90
2024-02-29T08:16:11.445Z,99.90
2024-02-29T08:17:14.364Z,99.90
2024-02-29T08:18:16.413Z,99.90
2024-02-29T08:19:19.437Z,99.90
2024-02-29T08:20:21.767Z,99.90
2024-02-29T08:21:24.890Z,99.90
2024-02-29T08:22:28.300Z,99.90
2024-02-29T08:23:31.276Z,99.90
2024-02-29T08:24:33.184Z,99.90
2024-02-29T08:25:36.132Z,99.90
2024-02-29T08:26:38.091Z,99.90
2024-02-29T08:27:40.997Z,99.90
2024-02-29T08:28:44.424Z,99.90
2024-02-29T08:29:47.438Z,99.90
2024-02-29T08:30:49.526Z,99.90
2024-02-29T08:31:52.733Z,99.90
2024-02-29T08:32:54.760Z,99.90
2024-02-29T08:33:58.106Z,99.90
2024-02-29T08:35:00.118Z,99.90
2024-02-29T08:36:03.649Z,99.90
2024-02-29T08:37:05.702Z,99.90
2024-02-29T08:38:09.974Z,99.90
2024-02-29T08:39:12.076Z,99.90
2024-02-29T08:40:15.559Z,99.90
2024-02-29T08:41:17.742Z,99.90
2024-02-29T08:42:20.663Z,99.90
2024-02-29T08:43:22.798Z,99.90
2024-02-29T08:44:25.952Z,99.90
2024-02-29T08:45:27.936Z,99.90
2024-02-29T08:46:30.868Z,99.90
2024-02-29T08:47:32.881Z,99.90
2024-02-29T08:48:35.870Z,99.90
2024-02-29T08:49:37.923Z,99.90
2024-02-29T08:50:40.053Z,99.90
2024-02-29T08:51:42.992Z,99.90
2024-02-29T08:52:44.985Z,99.90
2024-02-29T08:53:49.260Z,99.90
2024-02-29T08:54:51.254Z,99.90
2024-02-29T08:55:53.277Z,99.90
2024-02-29T08:56:57.164Z,99.90
2024-02-29T08:57:59.501Z,99.90
2024-02-29T08:59:02.463Z,99.90
2024-02-29T09:00:04.822Z,99.90
2024-02-29T09:01:09.137Z,99.90
2024-02-29T09:02:11.333Z,99.90
2024-02-29T09:03:15.599Z,99.90
2024-02-29T09:04:17.920Z,99.90
2024-02-29T09:05:20.081Z,99.90
2024-02-29T09:06:22.959Z,99.90
2024-02-29T09:07:25.295Z,99.90
2024-02-29T09:08:28.268Z,99.90
2024-02-29T09:09:31.653Z,99.90
2024-02-29T09:10:34.569Z,99.90
2024-02-29T09:11:36.546Z,99.90
2024-02-29T09:12:39.501Z,99.90
2024-02-29T09:13:41.616Z,99.90
2024-02-29T09:14:43.677Z,99.90
2024-02-29T09:15:46.651Z,99.90
2024-02-29T09:16:48.601Z,99.90
2024-02-29T09:17:52.276Z,99.90
2024-02-29T09:18:54.302Z,99.90
2024-02-29T09:19:56.793Z,99.90
2024-02-29T09:20:59.686Z,99.90
2024-02-29T09:22:01.691Z,99.90
2024-02-29T09:23:05.257Z,99.10
2024-02-29T09:24:07.213Z,98.70
2024-02-29T09:25:11.896Z,98.40
2024-02-29T09:26:17.636Z,97.40
2024-02-29T09:27:21.776Z,96.80
2024-02-29T09:28:23.715Z,96.80
2024-02-29T09:29:27.556Z,96.30
2024-02-29T09:30:30.434Z,95.40
2024-02-29T09:31:32.641Z,94.20
2024-02-29T09:32:35.572Z,94.30
2024-02-29T09:33:38.335Z,92.80
2024-02-29T09:34:46.030Z,92.40
2024-02-29T09:35:56.904Z,91.00
2024-02-29T09:37:00.581Z,91.60
2024-02-29T09:38:02.490Z,91.10
2024-02-29T09:39:06.532Z,90.70
2024-02-29T09:40:11.258Z,91.00
2024-02-29T09:41:31.904Z,90.00
2024-02-29T09:42:37.597Z,87.30
2024-02-29T09:43:41.371Z,84.80
2024-02-29T09:44:44.407Z,85.90
2024-02-29T09:45:49.646Z,81.80
2024-02-29T09:46:51.886Z,80.90
2024-02-29T09:47:55.399Z,79.40
2024-02-29T09:48:58.780Z,79.40
2024-02-29T09:50:05.300Z,77.30
2024-02-29T09:51:11.828Z,77.00
2024-02-29T09:52:15.760Z,75.00
2024-02-29T09:53:19.499Z,74.40
2024-02-29T09:54:23.793Z,73.20
2024-02-29T09:55:29.090Z,73.50
2024-02-29T09:56:32.408Z,75.10
2024-02-29T09:57:35.161Z,74.90
2024-02-29T09:58:38.283Z,75.10
2024-02-29T09:59:42.501Z,74.40
2024-02-29T10:00:45.536Z,74.40
2024-02-29T10:01:49.754Z,73.10
2024-02-29T10:02:55.689Z,73.00
2024-02-29T10:03:59.741Z,72.00
2024-02-29T10:05:02.942Z,72.10
2024-02-29T10:06:06.435Z,72.10
2024-02-29T10:07:09.361Z,71.40
2024-02-29T10:08:11.279Z,70.70
2024-02-29T10:09:14.158Z,70.10
2024-02-29T10:10:17.828Z,69.00
2024-02-29T10:11:22.914Z,67.50
2024-02-29T10:12:24.990Z,67.60
2024-02-29T10:13:36.312Z,66.40
2024-02-29T10:14:39.187Z,66.50
2024-02-29T10:15:42.414Z,66.40
2024-02-29T10:16:44.597Z,67.00
2024-02-29T10:17:47.632Z,65.80
2024-02-29T10:18:50.855Z,65.90
2024-02-29T10:19:54.089Z,65.90
2024-02-29T10:20:56.062Z,64.30
2024-02-29T10:21:59.373Z,64.10
2024-02-29T10:23:01.341Z,64.20
2024-02-29T10:24:04.539Z,64.60
2024-02-29T10:25:11.440Z,62.90
2024-02-29T10:26:14.478Z,63.50
2024-02-29T10:27:18.294Z,64.10
2024-02-29T10:28:21.522Z,64.20
2024-02-29T10:29:25.964Z,64.90
2024-02-29T10:30:29.858Z,64.30
2024-02-29T10:31:31.882Z,63.80
2024-02-29T10:32:34.832Z,63.90
2024-02-29T10:33:39.517Z,62.80
2024-02-29T10:34:42.968Z,63.00
2024-02-29T10:35:44.933Z,63.30
2024-02-29T10:36:48.350Z,63.80
2024-02-29T10:37:51.659Z,63.30
2024-02-29T10:38:56.229Z,62.70
2024-02-29T10:39:58.206Z,62.70
2024-02-29T10:41:02.038Z,62.10
2024-02-29T10:42:04.800Z,62.10
2024-02-29T10:43:10.961Z,61.90
2024-02-29T10:44:13.284Z,61.80
2024-02-29T10:45:17.013Z,61.20
2024-02-29T10:46:20.083Z,61.80
2024-02-29T10:47:24.862Z,60.60
2024-02-29T10:48:30.479Z,61.50
2024-02-29T10:49:37.148Z,61.40
2024-02-29T10:50:41.639Z,60.10
2024-02-29T10:51:45.300Z,59.50
2024-02-29T10:52:49.372Z,60.00
2024-02-29T10:53:59.541Z,59.60
2024-02-29T10:55:06.942Z,60.80
2024-02-29T10:56:19.781Z,60.70
2024-02-29T10:57:24.415Z,60.60
2024-02-29T10:58:32.748Z,60.60
2024-02-29T10:59:37.764Z,60.10
2024-02-29T11:00:42.651Z,60.40
2024-02-29T11:01:45.027Z,59.30
2024-02-29T11:02:47.978Z,58.50
2024-02-29T11:03:50.117Z,58.50
2024-02-29T11:04:54.061Z,58.70
2024-02-29T11:05:56.635Z,59.00
2024-02-29T11:06:59.727Z,59.20
2024-02-29T11:08:03.285Z,59.10
2024-02-29T11:09:09.658Z,59.90
2024-02-29T11:10:11.740Z,59.40
2024-02-29T11:11:16.140Z,59.10
2024-02-29T11:12:19.167Z,59.20
2024-02-29T11:13:22.517Z,58.80
2024-02-29T11:14:25.967Z,58.80
2024-02-29T11:15:29.241Z,59.00
2024-02-29T11:16:31.825Z,58.60
2024-02-29T11:17:34.856Z,58.10
2024-02-29T11:18:39.211Z,58.00
2024-02-29T11:19:48.125Z,57.90
2024-02-29T11:21:04.154Z,58.00
2024-02-29T11:22:11.101Z,58.40
2024-02-29T11:23:13.221Z,58.00
2024-02-29T11:24:19.642Z,58.30
2024-02-29T11:25:22.353Z,57.40
2024-02-29T11:26:28.808Z,58.20
2024-02-29T11:27:31.561Z,57.60
2024-02-29T11:28:35.302Z,57.70
2024-02-29T11:29:38.764Z,57.90
2024-02-29T11:30:44.039Z,57.50
2024-02-29T11:31:48.537Z,57.70
2024-02-29T11:32:52.368Z,57.70
2024-02-29T11:33:55.224Z,57.60
2024-02-29T11:34:58.660Z,57.70
2024-02-29T11:36:00.621Z,58.00
2024-02-29T11:37:06.919Z,58.00
2024-02-29T11:38:10.266Z,57.40
2024-02-29T11:39:15.527Z,57.40
2024-02-29T11:40:17.729Z,57.40
2024-02-29T11:41:20.342Z,57.70
2024-02-29T11:42:24.038Z,57.60
2024-02-29T11:43:26.397Z,58.00
2024-02-29T11:44:29.422Z,58.40
2024-02-29T11:45:32.707Z,58.20
2024-02-29T11:46:34.748Z,58.50
2024-02-29T11:47:40.293Z,58.70
2024-02-29T11:48:42.796Z,58.30
2024-02-29T11:49:45.873Z,58.30
2024-02-29T11:50:47.784Z,58.50
2024-02-29T11:51:52.206Z,58.40
2024-02-29T11:52:57.422Z,58.30
2024-02-29T11:54:00.461Z,58.10
2024-02-29T11:55:02.639Z,57.30
2024-02-29T11:56:14.501Z,57.60
2024-02-29T11:57:18.253Z,58.70
2024-02-29T11:58:23.012Z,58.30
2024-02-29T11:59:25.054Z,58.50
2024-02-29T12:00:29.366Z,59.00
2024-02-29T12:01:32.770Z,59.20
2024-02-29T12:02:36.566Z,58.70
2024-02-29T12:03:38.503Z,58.70
2024-02-29T12:04:41.389Z,58.50
2024-02-29T12:05:43.856Z,59.00
2024-02-29T12:06:48.202Z,58.50
2024-02-29T12:07:50.369Z,58.90
2024-02-29T12:08:53.058Z,59.10
2024-02-29T12:09:56.419Z,59.00
2024-02-29T12:10:59.439Z,60.50
2024-02-29T12:12:02.598Z,60.90
2024-02-29T12:13:05.052Z,61.40
2024-02-29T12:14:09.024Z,61.60
2024-02-29T12:15:11.885Z,61.20
2024-02-29T12:16:15.369Z,61.30
2024-02-29T12:17:19.996Z,61.40
2024-02-29T12:18:23.405Z,61.10
2024-02-29T12:19:25.925Z,60.80
2024-02-29T12:20:28.218Z,61.00
2024-02-29T12:21:31.161Z,60.20
2024-02-29T12:22:33.448Z,60.00
2024-02-29T12:23:35.540Z,59.70
2024-02-29T12:24:39.589Z,59.60
2024-02-29T12:25:43.888Z,58.50
2024-02-29T12:26:49.347Z,58.60
2024-02-29T12:27:51.294Z,58.40
2024-02-29T12:28:54.223Z,59.00
2024-02-29T12:29:56.205Z,58.80
2024-02-29T12:30:59.315Z,58.60
2024-02-29T12:32:01.515Z,58.40
2024-02-29T12:33:06.496Z,58.70
2024-02-29T12:34:08.660Z,58.00
2024-02-29T12:35:12.553Z,57.10
2024-02-29T12:36:17.277Z,56.70
2024-02-29T12:37:19.950Z,56.60
2024-02-29T12:38:24.914Z,56.50
2024-02-29T12:39:26.977Z,56.80
2024-02-29T12:40:31.399Z,57.10
2024-02-29T12:41:33.404Z,56.50
2024-02-29T12:42:36.483Z,56.00
2024-02-29T12:43:39.828Z,56.00
2024-02-29T12:44:42.744Z,56.00
2024-02-29T12:45:44.932Z,54.80
2024-02-29T12:46:52.985Z,55.30
2024-02-29T12:47:55.386Z,55.40
2024-02-29T12:48:59.732Z,55.60
2024-02-29T12:50:01.717Z,55.10
2024-02-29T12:51:04.855Z,55.10
2024-02-29T12:52:06.797Z,54.00
2024-02-29T12:53:09.781Z,54.90
2024-02-29T12:54:12.142Z,55.20
2024-02-29T12:55:15.590Z,54.70
2024-02-29T12:56:17.986Z,54.60
2024-02-29T12:57:21.004Z,54.10
2024-02-29T12:58:23.136Z,53.70
2024-02-29T12:59:27.711Z,54.00
2024-02-29T13:00:29.720Z,54.10
2024-02-29T13:01:32.795Z,54.50
2024-02-29T13:02:34.963Z,55.20
2024-02-29T13:03:38.294Z,55.50
2024-02-29T13:04:41.635Z,55.90
2024-02-29T13:05:45.522Z,55.90
2024-02-29T13:06:47.700Z,56.00
2024-02-29T13:07:50.633Z,56.30
2024-02-29T13:08:52.869Z,55.80
2024-02-29T13:09:55.893Z,55.30
2024-02-29T13:10:57.930Z,55.40
2024-02-29T13:12:00.828Z,55.80
2024-02-29T13:13:10.110Z,56.50
2024-02-29T13:14:13.934Z,56.60
2024-02-29T13:15:16.032Z,57.20
2024-02-29T13:16:19.230Z,57.70
2024-02-29T13:17:21.309Z,58.60
2024-02-29T13:18:24.264Z,59.20
2024-02-29T13:19:26.248Z,59.30
2024-02-29T13:20:30.669Z,59.50
2024-02-29T13:21:32.612Z,59.40
2024-02-29T13:22:35.768Z,59.40
2024-02-29T13:23:37.685Z,59.40
2024-02-29T13:24:40.681Z,60.00
2024-02-29T13:25:42.763Z,59.70
2024-02-29T13:26:45.900Z,60.00
2024-02-29T13:27:47.868Z,60.60
2024-02-29T13:28:50.773Z,61.00
2024-02-29T13:29:52.805Z,60.90
2024-02-29T13:30:55.790Z,60.10
2024-02-29T13:31:57.703Z,59.70
2024-02-29T13:33:00.657Z,59.10